Terminal Aerodrome Forecast
Issued by NWS

Home | Current Version | Previous Version | Text Only | Print | Product List | Glossary On
Versions: 1 2 3 4 5 6 7 8 9 10 11 12 13 14 15 16 17 18 19 20 21 22 23 24 25 26 27 28 29 30 31 32 33 34 35
000
FTUS43 KDLH 290533 AAB
TAFHIB
TAF AMD
KHIB 290533Z 2906/3006 VRB03KT 1SM BR VV003 BKN050
      TEMPO 2906/2909 1/4SM FG
     FM291400 31007KT P6SM SCT040 BKN080
     FM291700 32010G18KT P6SM VCTS BKN040CB
     FM300100 35008G20KT P6SM VCTS BKN040CB=

USA.gov is the U.S. government's official web portal to all federal, state and local government web resources and services.